Observation data for Andrews on 02/23/2019      Previous  Date  Next       Current Mesonet Observations  Soil Data  Daily Summary Page  Observations in Plain Language
KANS 230600Z 23023G34KT 13/00 A2972 RMK A01 T01320004  RH  042%=      5-min Rain = 0
KANS 230605Z 25026G39KT 13/02 A2972 RMK A01 T01330022  RH  048%=      5-min Rain = 0
KANS 230610Z 26026G43KT 13/02 A2973 RMK A01 T01330021  RH  047%=      5-min Rain = 0
KANS 230615Z 27025G40KT 13/03 A2973 RMK A01 T01310025  RH  049%=      5-min Rain = 0
KANS 230620Z 28023G33KT 13/04 A2974 RMK A01 T01290035  RH  053%=      5-min Rain = 0
KANS 230625Z 27024G31KT 13/04 A2976 RMK A01 T01270037  RH  055%=      5-min Rain = 0
KANS 230630Z 27022G30KT 12/03 A2977 RMK A01 T01230032  RH  055%=      5-min Rain = 0
KANS 230635Z 27020G26KT 12/02 A2977 RMK A01 T01200023  RH  052%=      5-min Rain = 0
KANS 230640Z 26019G29KT 12/00 A2978 RMK A01 T01210004  RH  045%=      5-min Rain = 0
KANS 230645Z 27020G28KT 12/M02 A2979 RMK A01 T01211015  RH  039%=      5-min Rain = 0
KANS 230650Z 27021G34KT 12/M02 A2979 RMK A01 T01201021  RH  038%=      5-min Rain = 0
KANS 230655Z 27020G29KT 12/M02 A298 RMK A01 T01181023  RH  038%=      5-min Rain = 0
KANS 230700Z 27019G27KT 12/M02 A298 RMK A01 T01151023  RH  039%=      5-min Rain = 0
KANS 230705Z 27018G26KT 11/M02 A2981 RMK A01 T01141023  RH  039%=      5-min Rain = 0
KANS 230710Z 26020G29KT 11/M03 A2981 RMK A01 T01111026  RH  038%=      5-min Rain = 0
KANS 230715Z 26022G28KT 11/M03 A2982 RMK A01 T01071030  RH  038%=      5-min Rain = 0
KANS 230720Z 27022G32KT 10/M03 A2982 RMK A01 T01031032  RH  039%=      5-min Rain = 0
KANS 230725Z 27022G29KT 10/M03 A2981 RMK A01 T01001032  RH  040%=      5-min Rain = 0
KANS 230730Z 27018G24KT 10/M03 A2982 RMK A01 T00971031  RH  041%=      5-min Rain = 0
KANS 230735Z 27021G31KT 10/M03 A2982 RMK A01 T00951031  RH  041%=      5-min Rain = 0
KANS 230740Z 26020G30KT 09/M03 A2983 RMK A01 T00931031  RH  042%=      5-min Rain = 0
KANS 230745Z 26017G24KT 09/M03 A2983 RMK A01 T00911031  RH  042%=      5-min Rain = 0
KANS 230750Z 26013G20KT 09/M03 A2983 RMK A01 T00901031  RH  043%=      5-min Rain = 0
KANS 230755Z 26012G17KT 09/M03 A2983 RMK A01 T00881031  RH  044%=      5-min Rain = 0
KANS 230800Z 26015G21KT 09/M03 A2984 RMK A01 T00871032  RH  043%=      5-min Rain = 0
KANS 230805Z 26015G22KT 09/M04 A2983 RMK A01 T00861035  RH  043%=      5-min Rain = 0
KANS 230810Z 26017G23KT 09/M04 A2984 RMK A01 T00851042  RH  041%=      5-min Rain = 0
KANS 230815Z 26016KT 08/M05 A2984 RMK A01 T00831045  RH  040%=      5-min Rain = 0
KANS 230820Z 26016G22KT 08/M05 A2985 RMK A01 T00831046  RH  040%=      5-min Rain = 0
KANS 230825Z 26014G19KT 08/M05 A2985 RMK A01 T00821047  RH  040%=      5-min Rain = 0
KANS 230830Z 25012G17KT 08/M05 A2984 RMK A01 T00811047  RH  040%=      5-min Rain = 0
KANS 230835Z 24011G16KT 08/M05 A2984 RMK A01 T00801046  RH  041%=      5-min Rain = 0
KANS 230840Z 23013G18KT 08/M04 A2984 RMK A01 T00811043  RH  042%=      5-min Rain = 0
KANS 230845Z 25016G25KT 08/M05 A2985 RMK A01 T00811047  RH  041%=      5-min Rain = 0
KANS 230850Z 25016G21KT 08/M05 A2985 RMK A01 T00801048  RH  040%=      5-min Rain = 0
KANS 230855Z 25015G22KT 08/M05 A2985 RMK A01 T00801047  RH  041%=      5-min Rain = 0
KANS 230900Z 24014G19KT 08/M04 A2985 RMK A01 T00781044  RH  042%=      5-min Rain = 0
KANS 230905Z 24014G19KT 08/M04 A2985 RMK A01 T00761041  RH  044%=      5-min Rain = 0
KANS 230910Z 23014G19KT 07/M04 A2985 RMK A01 T00741037  RH  046%=      5-min Rain = 0
KANS 230915Z 24015G23KT 07/M04 A2985 RMK A01 T00721037  RH  046%=      5-min Rain = 0
KANS 230920Z 24018G27KT 07/M04 A2986 RMK A01 T00691039  RH  047%=      5-min Rain = 0
KANS 230925Z 24018G23KT 07/M04 A2986 RMK A01 T00661038  RH  048%=      5-min Rain = 0
KANS 230930Z 24017G27KT 06/M04 A2986 RMK A01 T00631038  RH  049%=      5-min Rain = 0
KANS 230935Z 24017G25KT 06/M04 A2987 RMK A01 T00591039  RH  050%=      5-min Rain = 0
KANS 230940Z 24018G27KT 06/M04 A2987 RMK A01 T00571039  RH  051%=      5-min Rain = 0
KANS 230945Z 24018G26KT 06/M04 A2987 RMK A01 T00561039  RH  051%=      5-min Rain = 0
KANS 230950Z 24019G26KT 06/M04 A2987 RMK A01 T00551039  RH  051%=      5-min Rain = 0
KANS 230955Z 25021G28KT 05/M04 A2987 RMK A01 T00541039  RH  052%=      5-min Rain = 0
KANS 231000Z 25019G26KT 05/M04 A2987 RMK A01 T00531039  RH  052%=      5-min Rain = 0
KANS 231005Z 25020G28KT 05/M04 A2987 RMK A01 T00531039  RH  052%=      5-min Rain = 0
KANS 231010Z 25022G28KT 05/M04 A2987 RMK A01 T00521039  RH  052%=      5-min Rain = 0
KANS 231015Z 25019G27KT 05/M04 A2987 RMK A01 T00511040  RH  052%=      5-min Rain = 0
KANS 231020Z 25020G27KT 05/M04 A2988 RMK A01 T00511041  RH  052%=      5-min Rain = 0
KANS 231025Z 25021G29KT 05/M04 A2988 RMK A01 T00511043  RH  051%=      5-min Rain = 0
KANS 231030Z 25018G24KT 05/M05 A2988 RMK A01 T00501045  RH  051%=      5-min Rain = 0
KANS 231035Z 24017G25KT 05/M05 A2988 RMK A01 T00481047  RH  051%=      5-min Rain = 0
KANS 231040Z 25016G23KT 05/M05 A2988 RMK A01 T00471049  RH  050%=      5-min Rain = 0
KANS 231045Z 25015G21KT 05/M05 A2988 RMK A01 T00461052  RH  050%=      5-min Rain = 0
KANS 231050Z 25016G23KT 05/M05 A2988 RMK A01 T00451053  RH  050%=      5-min Rain = 0
KANS 231055Z 25015G20KT 04/M05 A2988 RMK A01 T00441054  RH  049%=      5-min Rain = 0
KANS 231100Z 26014G19KT 04/M06 A2988 RMK A01 T00441055  RH  049%=      5-min Rain = 0
KANS 231105Z 26014G20KT 04/M06 A2988 RMK A01 T00431057  RH  049%=      5-min Rain = 0
KANS 231110Z 26014G19KT 04/M06 A2988 RMK A01 T00431059  RH  048%=      5-min Rain = 0
KANS 231115Z 26014G23KT 04/M06 A2988 RMK A01 T00431060  RH  048%=      5-min Rain = 0
KANS 231120Z 26014G19KT 04/M06 A2988 RMK A01 T00421062  RH  047%=      5-min Rain = 0
KANS 231125Z 26015G21KT 04/M07 A2988 RMK A01 T00421066  RH  046%=      5-min Rain = 0
KANS 231130Z 26014G20KT 04/M07 A2989 RMK A01 T00441069  RH  044%=      5-min Rain = 0
KANS 231135Z 26016G23KT 04/M07 A2988 RMK A01 T00431072  RH  043%=      5-min Rain = 0
KANS 231140Z 25016G24KT 04/M08 A2988 RMK A01 T00441075  RH  042%=      5-min Rain = 0
KANS 231145Z 25016G22KT 04/M08 A2988 RMK A01 T00431076  RH  042%=      5-min Rain = 0
KANS 231150Z 25016G25KT 04/M08 A2988 RMK A01 T00431077  RH  042%=      5-min Rain = 0
KANS 231155Z 25016G23KT 04/M08 A2989 RMK A01 T00441078  RH  041%=      5-min Rain = 0
KANS 231200Z 25016G22KT 04/M08 A2989 RMK A01 T00431079  RH  041%=      5-min Rain = 0
KANS 231205Z 25016G22KT 04/M08 A2989 RMK A01 T00431079  RH  041%=      5-min Rain = 0
KANS 231210Z 25014G20KT 04/M08 A299 RMK A01 T00411079  RH  042%=      5-min Rain = 0
KANS 231215Z 24013KT 04/M08 A299 RMK A01 T00391078  RH  043%=      5-min Rain = 0
KANS 231220Z 23011G16KT 04/M07 A299 RMK A01 T00361074  RH  045%=      5-min Rain = 0
KANS 231225Z 23012G17KT 04/M07 A299 RMK A01 T00351074  RH  045%=      5-min Rain = 0
KANS 231230Z 23009KT 03/M07 A2991 RMK A01 T00331072  RH  047%=      5-min Rain = 0
KANS 231235Z 23009KT 03/M07 A2991 RMK A01 T00291070  RH  049%=      5-min Rain = 0
KANS 231240Z 23010KT 03/M07 A2992 RMK A01 T00271068  RH  050%=      5-min Rain = 0
KANS 231245Z 23011KT 03/M07 A2992 RMK A01 T00261066  RH  051%=      5-min Rain = 0
KANS 231250Z 23011G16KT 03/M06 A2992 RMK A01 T00261063  RH  052%=      5-min Rain = 0
KANS 231255Z 23011G16KT 03/M06 A2991 RMK A01 T00261061  RH  054%=      5-min Rain = 0
KANS 231300Z 24012KT 03/M06 A2991 RMK A01 T00251059  RH  054%=      5-min Rain = 0
KANS 231305Z 24012KT 02/M06 A2991 RMK A01 T00241060  RH  055%=      5-min Rain = 0
KANS 231310Z 24013G18KT 02/M06 A2991 RMK A01 T00231060  RH  054%=      5-min Rain = 0
KANS 231315Z 24013G18KT 02/M06 A2991 RMK A01 T00231060  RH  055%=      5-min Rain = 0
KANS 231320Z 24013G18KT 02/M06 A2991 RMK A01 T00241061  RH  054%=      5-min Rain = 0
KANS 231325Z 24013G21KT 03/M06 A2991 RMK A01 T00261061  RH  053%=      5-min Rain = 0
KANS 231330Z 24016G21KT 03/M06 A2991 RMK A01 T00271061  RH  053%=      5-min Rain = 0
KANS 231335Z 24015G23KT 03/M06 A2991 RMK A01 T00281061  RH  053%=      5-min Rain = 0
KANS 231340Z 24014G19KT 03/M06 A2991 RMK A01 T00291061  RH  052%=      5-min Rain = 0
KANS 231345Z 24015G23KT 03/M06 A2992 RMK A01 T00301061  RH  052%=      5-min Rain = 0
KANS 231350Z 24016G22KT 03/M06 A2992 RMK A01 T00321060  RH  052%=      5-min Rain = 0
KANS 231355Z 24014G20KT 03/M06 A2992 RMK A01 T00321059  RH  052%=      5-min Rain = 0
KANS 231400Z 25012KT 03/M06 A2992 RMK A01 T00331059  RH  051%=      5-min Rain = 0
KANS 231405Z 25014G19KT 03/M06 A2992 RMK A01 T00341059  RH  051%=      5-min Rain = 0
KANS 231410Z 24014G21KT 04/M06 A2992 RMK A01 T00351059  RH  051%=      5-min Rain = 0
KANS 231415Z 24014KT 04/M06 A2992 RMK A01 T00361058  RH  051%=      5-min Rain = 0
KANS 231420Z 24014G19KT 04/M06 A2993 RMK A01 T00371059  RH  050%=      5-min Rain = 0
KANS 231425Z 23012G17KT 04/M06 A2993 RMK A01 T00401058  RH  049%=      5-min Rain = 0
KANS 231430Z 23014G20KT 04/M06 A2993 RMK A01 T00421059  RH  049%=      5-min Rain = 0
KANS 231435Z 23015G20KT 04/M06 A2993 RMK A01 T00431060  RH  048%=      5-min Rain = 0
KANS 231440Z 23015G20KT 05/M06 A2993 RMK A01 T00451060  RH  047%=      5-min Rain = 0
KANS 231445Z 23015G21KT 05/M06 A2993 RMK A01 T00471062  RH  046%=      5-min Rain = 0
KANS 231450Z 24015G21KT 05/M06 A2993 RMK A01 T00491063  RH  044%=      5-min Rain = 0
KANS 231455Z 24016G22KT 05/M07 A2994 RMK A01 T00511065  RH  043%=      5-min Rain = 0
KANS 231500Z 24016G23KT 05/M07 A2994 RMK A01 T00521067  RH  042%=      5-min Rain = 0
KANS 231505Z 24020G26KT 05/M07 A2993 RMK A01 T00541070  RH  041%=      5-min Rain = 0
KANS 231510Z 24020G26KT 06/M07 A2993 RMK A01 T00551071  RH  040%=      5-min Rain = 0
KANS 231515Z 24020G29KT 06/M07 A2993 RMK A01 T00571072  RH  039%=      5-min Rain = 0
KANS 231520Z 24019G29KT 06/M07 A2993 RMK A01 T00601073  RH  038%=      5-min Rain = 0
KANS 231525Z 24020G28KT 06/M08 A2993 RMK A01 T00621075  RH  037%=      5-min Rain = 0
KANS 231530Z 25019G29KT 06/M08 A2994 RMK A01 T00641077  RH  036%=      5-min Rain = 0
KANS 231535Z 25021G30KT 07/M08 A2994 RMK A01 T00651080  RH  035%=      5-min Rain = 0
KANS 231540Z 25021G31KT 07/M08 A2994 RMK A01 T00671080  RH  035%=      5-min Rain = 0
KANS 231545Z 25019G28KT 07/M08 A2994 RMK A01 T00701082  RH  033%=      5-min Rain = 0
KANS 231550Z 25020G29KT 07/M08 A2995 RMK A01 T00741082  RH  032%=      5-min Rain = 0
KANS 231555Z 25022G30KT 07/M08 A2995 RMK A01 T00741083  RH  032%=      5-min Rain = 0
KANS 231600Z 25021G28KT 08/M08 A2995 RMK A01 T00751084  RH  032%=      5-min Rain = 0
KANS 231605Z 25023G30KT 08/M09 A2995 RMK A01 T00771085  RH  031%=      5-min Rain = 0
KANS 231610Z 25021G28KT 08/M08 A2995 RMK A01 T00781084  RH  031%=      5-min Rain = 0
KANS 231615Z 25021G37KT 08/M08 A2995 RMK A01 T00811084  RH  031%=      5-min Rain = 0
KANS 231620Z 26024G32KT 08/M09 A2995 RMK A01 T00811086  RH  030%=      5-min Rain = 0
KANS 231625Z 27024G31KT 08/M09 A2995 RMK A01 T00821087  RH  029%=      5-min Rain = 0
KANS 231630Z 26023G30KT 09/M09 A2994 RMK A01 T00851086  RH  029%=      5-min Rain = 0
KANS 231635Z 26021G31KT 09/M09 A2995 RMK A01 T00881086  RH  029%=      5-min Rain = 0
KANS 231640Z 25022G32KT 09/M09 A2995 RMK A01 T00901089  RH  028%=      5-min Rain = 0
KANS 231645Z 26022G29KT 09/M09 A2995 RMK A01 T00921090  RH  027%=      5-min Rain = 0
KANS 231650Z 25025G34KT 09/M09 A2996 RMK A01 T00901088  RH  028%=      5-min Rain = 0
KANS 231655Z 26020G28KT 09/M09 A2996 RMK A01 T00931087  RH  027%=      5-min Rain = 0
KANS 231700Z 25023G32KT 10/M09 A2996 RMK A01 T00971088  RH  027%=      5-min Rain = 0
KANS 231705Z 26023G32KT 10/M09 A2996 RMK A01 T00971089  RH  026%=      5-min Rain = 0
KANS 231710Z 26022G35KT 10/M09 A2996 RMK A01 T00991091  RH  026%=      5-min Rain = 0
KANS 231715Z 26021G28KT 10/M09 A2996 RMK A01 T01021092  RH  025%=      5-min Rain = 0
KANS 231720Z 25023G33KT 10/M09 A2996 RMK A01 T01031093  RH  024%=      5-min Rain = 0
KANS 231725Z 26024G33KT 11/M09 A2996 RMK A01 T01051092  RH  024%=      5-min Rain = 0
KANS 231730Z 26023G31KT 11/M10 A2997 RMK A01 T01061098  RH  023%=      5-min Rain = 0
KANS 231735Z 26022G32KT 11/M10 A2997 RMK A01 T01111096  RH  023%=      5-min Rain = 0
KANS 231740Z 26021G29KT 11/M10 A2997 RMK A01 T01121099  RH  022%=      5-min Rain = 0
KANS 231745Z 26024G30KT 11/M10 A2997 RMK A01 T01141100  RH  022%=      5-min Rain = 0
KANS 231750Z 26020G29KT 12/M10 A2997 RMK A01 T01151100  RH  021%=      5-min Rain = 0
KANS 231755Z 26019G29KT 12/M10 A2997 RMK A01 T01191098  RH  021%=      5-min Rain = 0
KANS 231800Z 26021G29KT 12/M10 A2997 RMK A01 T01241104  RH  020%=      5-min Rain = 0
KANS 231805Z 27023G31KT 13/M12 A2997 RMK A01 T01251117  RH  018%=      5-min Rain = 0
KANS 231810Z 28024G37KT 13/M13 A2997 RMK A01 T01271134  RH  015%=      5-min Rain = 0
KANS 231815Z 26021G30KT 13/M12 A2997 RMK A01 T01311119  RH  017%=      5-min Rain = 0
KANS 231820Z 25022G30KT 13/M11 A2997 RMK A01 T01281113  RH  018%=      5-min Rain = 0
KANS 231825Z 26021G30KT 13/M12 A2997 RMK A01 T01311115  RH  017%=      5-min Rain = 0
KANS 231830Z 27020G29KT 13/M13 A2997 RMK A01 T01341133  RH  015%=      5-min Rain = 0
KANS 231835Z 27022G30KT 14/M13 A2997 RMK A01 T01351132  RH  015%=      5-min Rain = 0
KANS 231840Z 27022G31KT 13/M14 A2997 RMK A01 T01341139  RH  014%=      5-min Rain = 0
KANS 231845Z 26024G32KT 14/M14 A2997 RMK A01 T01351139  RH  014%=      5-min Rain = 0
KANS 231850Z 26023G36KT 14/M14 A2997 RMK A01 T01371140  RH  014%=      5-min Rain = 0
KANS 231855Z 28023G31KT 14/M14 A2997 RMK A01 T01361142  RH  013%=      5-min Rain = 0
KANS 231900Z 28025G37KT 14/M14 A2997 RMK A01 T01361143  RH  013%=      5-min Rain = 0
KANS 231905Z 27022G31KT 14/M14 A2997 RMK A01 T01381141  RH  013%=      5-min Rain = 0
KANS 231910Z 27025G34KT 14/M14 A2996 RMK A01 T01391143  RH  013%=      5-min Rain = 0
KANS 231915Z 28022G32KT 14/M14 A2996 RMK A01 T01411140  RH  013%=      5-min Rain = 0
KANS 231920Z 28022G32KT 14/M14 A2996 RMK A01 T01421141  RH  013%=      5-min Rain = 0
KANS 231925Z 28022G30KT 14/M14 A2996 RMK A01 T01421140  RH  013%=      5-min Rain = 0
KANS 231930Z 27022G31KT 15/M14 A2996 RMK A01 T01461140  RH  013%=      5-min Rain = 0
KANS 231935Z 28020G33KT 15/M14 A2996 RMK A01 T01471139  RH  013%=      5-min Rain = 0
KANS 231940Z 27022G33KT 15/M14 A2996 RMK A01 T01461143  RH  012%=      5-min Rain = 0
KANS 231945Z 27020G28KT 15/M14 A2995 RMK A01 T01481141  RH  012%=      5-min Rain = 0
KANS 231950Z 28022G33KT 15/M14 A2995 RMK A01 T01531141  RH  012%=      5-min Rain = 0
KANS 231955Z 26020G32KT 15/M14 A2995 RMK A01 T01521141  RH  012%=      5-min Rain = 0
KANS 232000Z 26021G29KT 15/M14 A2995 RMK A01 T01501143  RH  012%=      5-min Rain = 0
KANS 232005Z 28021G31KT 15/M16 A2995 RMK A01 T01541158  RH  010%=      5-min Rain = 0
KANS 232010Z 29020G34KT 16/M16 A2996 RMK A01 T01561164  RH  010%=      5-min Rain = 0
KANS 232015Z 28021G33KT 16/M17 A2996 RMK A01 T01561166  RH  010%=      5-min Rain = 0
KANS 232020Z 28020G28KT 16/M17 A2996 RMK A01 T01571165  RH  010%=      5-min Rain = 0
KANS 232025Z 28019G29KT 16/M16 A2996 RMK A01 T01571164  RH  010%=      5-min Rain = 0
KANS 232030Z 29022G33KT 16/M18 A2996 RMK A01 T01611176  RH  009%=      5-min Rain = 0
KANS 232035Z 29021G32KT 16/M18 A2996 RMK A01 T01611178  RH  008%=      5-min Rain = 0
KANS 232040Z 29024G31KT 16/M18 A2996 RMK A01 T01591178  RH  009%=      5-min Rain = 0
KANS 232045Z 30023G33KT 16/M18 A2996 RMK A01 T01601178  RH  008%=      5-min Rain = 0
KANS 232050Z 30024G33KT 16/M18 A2997 RMK A01 T01611181  RH  008%=      5-min Rain = 0
KANS 232055Z 30022G32KT 16/M18 A2997 RMK A01 T01601182  RH  008%=      5-min Rain = 0
KANS 232100Z 30023G31KT 16/M18 A2997 RMK A01 T01591182  RH  008%=      5-min Rain = 0
KANS 232105Z 29024G34KT 16/M19 A2997 RMK A01 T01611187  RH  008%=      5-min Rain = 0
KANS 232110Z 29019G28KT 16/M19 A2998 RMK A01 T01601185  RH  008%=      5-min Rain = 0
KANS 232115Z 29019G26KT 16/M18 A2998 RMK A01 T01631182  RH  008%=      5-min Rain = 0
KANS 232120Z 28020G28KT 16/M18 A2998 RMK A01 T01631182  RH  008%=      5-min Rain = 0
KANS 232125Z 29020G26KT 16/M18 A2998 RMK A01 T01621182  RH  008%=      5-min Rain = 0
KANS 232130Z 30020G31KT 16/M18 A2998 RMK A01 T01621181  RH  008%=      5-min Rain = 0
KANS 232135Z 30018G27KT 16/M18 A2998 RMK A01 T01611175  RH  009%=      5-min Rain = 0
KANS 232140Z 30020G28KT 16/M18 A2998 RMK A01 T01621176  RH  009%=      5-min Rain = 0
KANS 232145Z 31020G28KT 16/M18 A2999 RMK A01 T01611175  RH  009%=      5-min Rain = 0
KANS 232150Z 30021G26KT 16/M17 A2999 RMK A01 T01581173  RH  009%=      5-min Rain = 0
KANS 232155Z 31020G31KT 16/M17 A2999 RMK A01 T01561174  RH  009%=      5-min Rain = 0
KANS 232200Z 31019G28KT 16/M17 A2999 RMK A01 T01581174  RH  009%=      5-min Rain = 0
KANS 232205Z 31021G31KT 16/M17 A2999 RMK A01 T01581174  RH  009%=      5-min Rain = 0
KANS 232210Z 31022G30KT 16/M18 A2999 RMK A01 T01561178  RH  009%=      5-min Rain = 0
KANS 232215Z 31022G27KT 16/M18 A30 RMK A01 T01551178  RH  009%=      5-min Rain = 0
KANS 232220Z 30021G28KT 16/M18 A30 RMK A01 T01551183  RH  008%=      5-min Rain = 0
KANS 232225Z 31019G27KT 16/M18 A3001 RMK A01 T01551181  RH  009%=      5-min Rain = 0
KANS 232230Z 30019G26KT 15/M18 A3001 RMK A01 T01541177  RH  009%=      5-min Rain = 0
KANS 232235Z 31021G26KT 15/M18 A3001 RMK A01 T01541177  RH  009%=      5-min Rain = 0
KANS 232240Z 31020G26KT 15/M18 A3002 RMK A01 T01531178  RH  009%=      5-min Rain = 0
KANS 232245Z 30019G27KT 15/M18 A3002 RMK A01 T01531177  RH  009%=      5-min Rain = 0
KANS 232250Z 30017G22KT 15/M17 A3002 RMK A01 T01531173  RH  009%=      5-min Rain = 0
KANS 232255Z 31018G25KT 15/M17 A3002 RMK A01 T01521172  RH  009%=      5-min Rain = 0
KANS 232300Z 30018G23KT 15/M17 A3002 RMK A01 T01511171  RH  010%=      5-min Rain = 0
KANS 232305Z 31017G22KT 15/M17 A3002 RMK A01 T01501167  RH  010%=      5-min Rain = 0
KANS 232310Z 31019G24KT 15/M17 A3002 RMK A01 T01491166  RH  010%=      5-min Rain = 0
KANS 232315Z 30017KT 15/M17 A3003 RMK A01 T01481165  RH  010%=      5-min Rain = 0
KANS 232320Z 31019G24KT 15/M17 A3003 RMK A01 T01481166  RH  010%=      5-min Rain = 0
KANS 232325Z 30016G22KT 15/M17 A3003 RMK A01 T01481169  RH  010%=      5-min Rain = 0
KANS 232330Z 31016G21KT 15/M17 A3003 RMK A01 T01481169  RH  010%=      5-min Rain = 0
KANS 232335Z 31016KT 15/M17 A3003 RMK A01 T01471167  RH  010%=      5-min Rain = 0
KANS 232340Z 30016G22KT 15/M17 A3003 RMK A01 T01471169  RH  010%=      5-min Rain = 0
KANS 232345Z 30016KT 15/M17 A3003 RMK A01 T01461169  RH  010%=      5-min Rain = 0
KANS 232350Z 31011G16KT 15/M16 A3004 RMK A01 T01451160  RH  011%=      5-min Rain = 0
KANS 232355Z 31012KT 14/M16 A3004 RMK A01 T01441161  RH  011%=      5-min Rain = 0
KANS 240000Z 29012G19KT 14/M17 A3004 RMK A01 T01441166  RH  010%=      5-min Rain = 0
KANS 240005Z 30011KT 14/M17 A3004 RMK A01 T01441165  RH  010%=      5-min Rain = 0
KANS 240010Z 30012G17KT 14/M17 A3005 RMK A01 T01421171  RH  010%=      5-min Rain = 0
KANS 240015Z 30012KT 14/M17 A3005 RMK A01 T01401172  RH  010%=      5-min Rain = 0
KANS 240020Z 31009KT 14/M17 A3005 RMK A01 T01381167  RH  011%=      5-min Rain = 0
KANS 240025Z 31011KT 14/M17 A3006 RMK A01 T01351167  RH  011%=      5-min Rain = 0
KANS 240030Z 31010KT 13/M17 A3006 RMK A01 T01331167  RH  011%=      5-min Rain = 0
KANS 240035Z 31009KT 13/M17 A3006 RMK A01 T01301169  RH  011%=      5-min Rain = 0
KANS 240040Z 31008KT 13/M17 A3006 RMK A01 T01261169  RH  011%=      5-min Rain = 0
KANS 240045Z 31007KT 12/M17 A3006 RMK A01 T01221169  RH  012%=      5-min Rain = 0
KANS 240050Z 30008KT 12/M17 A3007 RMK A01 T01191170  RH  012%=      5-min Rain = 0
KANS 240055Z 31006KT 12/M17 A3007 RMK A01 T01151168  RH  012%=      5-min Rain = 0
KANS 240100Z 30006KT 11/M17 A3007 RMK A01 T01081167  RH  013%=      5-min Rain = 0
KANS 240105Z 30007KT 11/M17 A3007 RMK A01 T01071165  RH  013%=      5-min Rain = 0
KANS 240110Z 30008KT 11/M16 A3007 RMK A01 T01081163  RH  013%=      5-min Rain = 0
KANS 240115Z 30008KT 11/M16 A3007 RMK A01 T01091163  RH  013%=      5-min Rain = 0
KANS 240120Z 30007KT 11/M16 A3007 RMK A01 T01071162  RH  014%=      5-min Rain = 0
KANS 240125Z 31007KT 11/M16 A3008 RMK A01 T01051162  RH  014%=      5-min Rain = 0
KANS 240130Z 32006KT 10/M16 A3008 RMK A01 T00981160  RH  015%=      5-min Rain = 0
KANS 240135Z 32007KT 09/M16 A3008 RMK A01 T00881158  RH  016%=      5-min Rain = 0
KANS 240140Z 31007KT 08/M16 A3009 RMK A01 T00841157  RH  017%=      5-min Rain = 0
KANS 240145Z 31006KT 08/M16 A3009 RMK A01 T00831155  RH  017%=      5-min Rain = 0
KANS 240150Z 30007KT 08/M16 A3009 RMK A01 T00841155  RH  017%=      5-min Rain = 0
KANS 240155Z 29007KT 09/M16 A3009 RMK A01 T00871155  RH  017%=      5-min Rain = 0
KANS 240200Z 29007KT 09/M16 A301 RMK A01 T00881155  RH  016%=      5-min Rain = 0
KANS 240205Z 28007KT 09/M16 A301 RMK A01 T00881155  RH  016%=      5-min Rain = 0
KANS 240210Z 29008KT 09/M15 A301 RMK A01 T00861154  RH  017%=      5-min Rain = 0
KANS 240215Z 29007KT 09/M16 A3011 RMK A01 T00861155  RH  017%=      5-min Rain = 0
KANS 240220Z 29007KT 09/M16 A3011 RMK A01 T00851155  RH  017%=      5-min Rain = 0
KANS 240225Z 30006KT 09/M16 A3012 RMK A01 T00861156  RH  017%=      5-min Rain = 0
KANS 240230Z 30007KT 09/M16 A3012 RMK A01 T00871156  RH  016%=      5-min Rain = 0
KANS 240235Z 30007KT 08/M16 A3012 RMK A01 T00841158  RH  017%=      5-min Rain = 0
KANS 240240Z 30007KT 08/M16 A3013 RMK A01 T00821160  RH  017%=      5-min Rain = 0
KANS 240245Z 30008KT 08/M16 A3013 RMK A01 T00811162  RH  016%=      5-min Rain = 0
KANS 240250Z 30009KT 08/M16 A3013 RMK A01 T00791163  RH  016%=      5-min Rain = 0
KANS 240255Z 29008KT 08/M16 A3013 RMK A01 T00761163  RH  017%=      5-min Rain = 0
KANS 240300Z 29008KT 07/M16 A3014 RMK A01 T00741163  RH  017%=      5-min Rain = 0
KANS 240305Z 29009KT 07/M16 A3014 RMK A01 T00741163  RH  017%=      5-min Rain = 0
KANS 240310Z 29009KT 08/M16 A3015 RMK A01 T00751163  RH  017%=      5-min Rain = 0
KANS 240315Z 29008KT 07/M16 A3015 RMK A01 T00741163  RH  017%=      5-min Rain = 0
KANS 240320Z 29008KT 07/M16 A3015 RMK A01 T00741163  RH  017%=      5-min Rain = 0
KANS 240325Z 29009KT 08/M16 A3016 RMK A01 T00761162  RH  017%=      5-min Rain = 0
KANS 240330Z 29008KT 08/M16 A3016 RMK A01 T00781163  RH  017%=      5-min Rain = 0
KANS 240335Z 29007KT 08/M16 A3016 RMK A01 T00751163  RH  017%=      5-min Rain = 0
KANS 240340Z 29006KT 07/M16 A3017 RMK A01 T00701162  RH  018%=      5-min Rain = 0
KANS 240345Z 29006KT 07/M16 A3017 RMK A01 T00671161  RH  018%=      5-min Rain = 0
KANS 240350Z 28006KT 06/M16 A3017 RMK A01 T00631160  RH  019%=      5-min Rain = 0
KANS 240355Z 28006KT 06/M16 A3017 RMK A01 T00601158  RH  019%=      5-min Rain = 0
KANS 240400Z 28006KT 06/M16 A3018 RMK A01 T00591156  RH  020%=      5-min Rain = 0
KANS 240405Z 28007KT 06/M16 A3018 RMK A01 T00601155  RH  020%=      5-min Rain = 0
KANS 240410Z 29008KT 06/M15 A3018 RMK A01 T00601153  RH  020%=      5-min Rain = 0
KANS 240415Z 29008KT 06/M15 A3019 RMK A01 T00611153  RH  020%=      5-min Rain = 0
KANS 240420Z 29007KT 06/M15 A3019 RMK A01 T00621153  RH  020%=      5-min Rain = 0
KANS 240425Z 29008KT 06/M15 A302 RMK A01 T00611153  RH  020%=      5-min Rain = 0
KANS 240430Z 29008KT 06/M15 A302 RMK A01 T00611153  RH  020%=      5-min Rain = 0
KANS 240435Z 30009KT 06/M15 A302 RMK A01 T00621154  RH  020%=      5-min Rain = 0
KANS 240440Z 30008KT 06/M15 A302 RMK A01 T00601154  RH  020%=      5-min Rain = 0
KANS 240445Z 31007KT 06/M15 A3021 RMK A01 T00571152  RH  021%=      5-min Rain = 0
KANS 240450Z 31007KT 05/M15 A3021 RMK A01 T00511150  RH  022%=      5-min Rain = 0
KANS 240455Z 30006KT 05/M15 A3021 RMK A01 T00491147  RH  023%=      5-min Rain = 0
KANS 240500Z 30007KT 05/M14 A3021 RMK A01 T00511144  RH  023%=      5-min Rain = 0
KANS 240505Z 30006KT 05/M14 A3021 RMK A01 T00531144  RH  023%=      5-min Rain = 0
KANS 240510Z 31005KT 05/M14 A3021 RMK A01 T00531143  RH  023%=      5-min Rain = 0
KANS 240515Z 30005KT 05/M14 A3022 RMK A01 T00521144  RH  023%=      5-min Rain = 0
KANS 240520Z 30006KT 05/M15 A3022 RMK A01 T00481145  RH  023%=      5-min Rain = 0
KANS 240525Z 29006KT 05/M15 A3022 RMK A01 T00451146  RH  024%=      5-min Rain = 0
KANS 240530Z 29006KT 04/M15 A3022 RMK A01 T00411146  RH  024%=      5-min Rain = 0
KANS 240535Z 29007KT 04/M14 A3022 RMK A01 T00411144  RH  025%=      5-min Rain = 0
KANS 240540Z 29006KT 04/M14 A3022 RMK A01 T00431143  RH  025%=      5-min Rain = 0
KANS 240545Z 29006KT 04/M14 A3022 RMK A01 T00441143  RH  025%=      5-min Rain = 0
KANS 240550Z 30005KT 04/M14 A3022 RMK A01 T00441143  RH  025%=      5-min Rain = 0
KANS 240555Z 30005KT 04/M14 A3023 RMK A01 T00441142  RH  025%=      5-min Rain = 0

Page generated in 0.0092 seconds.